Time;durP1;ratioP1;P1;durP2;ratioP2;P2;SDS_P1;SDS_P2;PMS_P1;PMS_P2;Temp;Humidity;BMP_temperature;BMP_pressure;BME280_temperature;BME280_humidity;BME280_pressure;Samples;Min_cycle;Max_cycle;Signal;HPM_P1;HPM_P2
2021/08/26 00:00:09;;;;;;;1.30;1.20;;;;;;;;;;5015221;28;20422;-76
2021/08/26 00:08:20;;;;;;;0.83;0.83;;;;;;;;;;5001949;28;20972;-76
2021/08/26 00:10:46;;;;;;;2.87;1.43;;;;;;;;;;5012315;28;20947;-76
2021/08/26 00:13:13;;;;;;;3.13;1.73;;;;;;;;;;5015375;28;20935;-76
2021/08/26 00:15:43;;;;;;;2.13;1.00;;;;;;;;;;5019828;28;20871;-76
2021/08/26 00:18:09;;;;;;;2.03;1.70;;;;;;;;;;5014309;28;20440;-76
2021/08/26 00:20:36;;;;;;;1.23;0.80;;;;;;;;;;5015303;28;20392;-76
2021/08/26 00:23:02;;;;;;;1.20;1.10;;;;;;;;;;5010418;28;20435;-76
2021/08/26 00:25:28;;;;;;;1.83;1.20;;;;;;;;;;5013975;28;20417;-75
2021/08/26 00:27:54;;;;;;;0.70;0.70;;;;;;;;;;5013143;28;20487;-76
2021/08/26 00:30:20;;;;;;;1.20;1.10;;;;;;;;;;5015057;28;20615;-75
2021/08/26 00:32:47;;;;;;;1.10;1.00;;;;;;;;;;5013855;28;20545;-76
2021/08/26 00:35:13;;;;;;;2.60;2.00;;;;;;;;;;5013846;28;20445;-76
2021/08/26 00:37:39;;;;;;;1.47;1.10;;;;;;;;;;5014139;28;20441;-77
2021/08/26 00:40:05;;;;;;;0.90;0.90;;;;;;;;;;4964120;23;20482;-74
2021/08/26 00:42:31;;;;;;;1.10;0.80;;;;;;;;;;4925479;28;20433;-74
2021/08/26 00:44:57;;;;;;;1.13;1.03;;;;;;;;;;4946635;28;20433;-74
2021/08/26 00:47:24;;;;;;;0.87;0.83;;;;;;;;;;4919481;28;21012;-73
2021/08/26 00:49:56;;;;;;;1.13;0.90;;;;;;;;;;4968151;28;20484;-74
2021/08/26 00:52:24;;;;;;;2.70;0.90;;;;;;;;;;4970199;28;20412;-74
2021/08/26 00:54:50;;;;;;;3.13;2.13;;;;;;;;;;4957765;28;20528;-74
2021/08/26 00:57:16;;;;;;;0.90;0.90;;;;;;;;;;4933645;28;20475;-73
2021/08/26 00:59:42;;;;;;;0.93;0.70;;;;;;;;;;4957033;28;20463;-73
2021/08/26 01:02:10;;;;;;;1.37;1.27;;;;;;;;;;4928530;28;20443;-73
2021/08/26 01:04:39;;;;;;;1.00;0.90;;;;;;;;;;4914124;28;20496;-74
2021/08/26 01:07:07;;;;;;;1.13;1.03;;;;;;;;;;4978626;28;20513;-74
2021/08/26 01:09:39;;;;;;;1.30;1.20;;;;;;;;;;4936630;28;20878;-73
2021/08/26 01:12:05;;;;;;;3.13;1.80;;;;;;;;;;4954541;28;20429;-74
2021/08/26 01:14:31;;;;;;;1.67;1.57;;;;;;;;;;4939268;28;20484;-74
2021/08/26 01:16:57;;;;;;;1.37;1.23;;;;;;;;;;4913571;28;20426;-73
2021/08/26 01:19:23;;;;;;;3.43;1.93;;;;;;;;;;4955054;28;20465;-74
2021/08/26 01:21:49;;;;;;;2.43;1.73;;;;;;;;;;4945801;28;20433;-73
2021/08/26 01:24:17;;;;;;;2.20;0.77;;;;;;;;;;4961840;28;20461;-73
2021/08/26 01:26:45;;;;;;;1.73;1.13;;;;;;;;;;4988306;28;20434;-74
2021/08/26 01:29:11;;;;;;;1.27;1.00;;;;;;;;;;4981680;28;20882;-74
2021/08/26 01:31:39;;;;;;;1.57;0.90;;;;;;;;;;4917288;28;20472;-74
2021/08/26 01:34:06;;;;;;;0.70;0.70;;;;;;;;;;4987801;28;20989;-74
2021/08/26 01:36:33;;;;;;;1.30;1.20;;;;;;;;;;4994455;28;20504;-74
2021/08/26 01:39:03;;;;;;;1.00;0.87;;;;;;;;;;4937930;28;20497;-74
2021/08/26 01:41:38;;;;;;;1.37;1.10;;;;;;;;;;4952141;28;20454;-74
2021/08/26 01:44:04;;;;;;;1.23;1.13;;;;;;;;;;4955563;28;20448;-74
2021/08/26 01:46:30;;;;;;;0.93;0.93;;;;;;;;;;4957881;28;20570;-74
2021/08/26 01:48:56;;;;;;;1.20;1.10;;;;;;;;;;4954975;28;21194;-74
2021/08/26 01:51:22;;;;;;;2.10;1.70;;;;;;;;;;4990916;28;20582;-74
2021/08/26 01:53:50;;;;;;;1.93;1.80;;;;;;;;;;4949225;28;20524;-74
2021/08/26 01:56:16;;;;;;;0.80;0.80;;;;;;;;;;4955232;28;20407;-74
2021/08/26 01:58:42;;;;;;;1.10;1.10;;;;;;;;;;4995105;28;20447;-73
2021/08/26 02:01:08;;;;;;;1.47;0.87;;;;;;;;;;4972038;28;20445;-74
2021/08/26 02:03:34;;;;;;;0.90;0.80;;;;;;;;;;4995802;28;20444;-74
2021/08/26 02:06:00;;;;;;;1.00;0.80;;;;;;;;;;4933805;28;20444;-74
2021/08/26 02:08:26;;;;;;;0.70;0.60;;;;;;;;;;4961740;28;20540;-74
2021/08/26 02:10:52;;;;;;;0.83;0.80;;;;;;;;;;4986469;28;20527;-74
2021/08/26 02:13:18;;;;;;;2.10;0.90;;;;;;;;;;4971042;28;20440;-74
2021/08/26 02:15:44;;;;;;;0.70;0.70;;;;;;;;;;4921306;28;20451;-74
2021/08/26 02:18:10;;;;;;;0.73;0.73;;;;;;;;;;4915273;28;20476;-74
2021/08/26 02:20:36;;;;;;;1.87;0.93;;;;;;;;;;4921336;28;20508;-73
2021/08/26 02:23:02;;;;;;;1.53;1.43;;;;;;;;;;4966045;28;20456;-74
2021/08/26 02:25:28;;;;;;;0.70;0.70;;;;;;;;;;4990693;28;20445;-74
2021/08/26 02:27:54;;;;;;;0.70;0.63;;;;;;;;;;4926983;28;20566;-74
2021/08/26 02:30:20;;;;;;;2.13;0.90;;;;;;;;;;4993996;28;20872;-74
2021/08/26 02:32:46;;;;;;;1.47;1.37;;;;;;;;;;4960150;28;20471;-74
2021/08/26 02:35:12;;;;;;;0.70;0.60;;;;;;;;;;4983773;28;20503;-74
2021/08/26 02:37:39;;;;;;;0.70;0.60;;;;;;;;;;4959144;28;20490;-74
2021/08/26 02:40:05;;;;;;;0.90;0.90;;;;;;;;;;4946592;28;20468;-74
2021/08/26 02:42:31;;;;;;;0.90;0.60;;;;;;;;;;4930001;28;20418;-76
2021/08/26 02:44:57;;;;;;;0.80;0.73;;;;;;;;;;4971989;28;20440;-76
2021/08/26 02:47:23;;;;;;;3.10;1.37;;;;;;;;;;4936566;28;20459;-76
2021/08/26 02:49:49;;;;;;;0.80;0.77;;;;;;;;;;4926937;28;20464;-76
2021/08/26 02:52:15;;;;;;;2.60;1.37;;;;;;;;;;4961509;28;20442;-76
2021/08/26 02:54:41;;;;;;;0.70;0.60;;;;;;;;;;4979290;28;20407;-76
2021/08/26 02:57:07;;;;;;;0.70;0.60;;;;;;;;;;4941874;28;20524;-76
2021/08/26 02:59:33;;;;;;;0.80;0.73;;;;;;;;;;4973597;28;20432;-76
2021/08/26 03:01:59;;;;;;;0.73;0.60;;;;;;;;;;4999555;28;20792;-77
2021/08/26 03:04:25;;;;;;;0.80;0.60;;;;;;;;;;4962887;28;20495;-76
2021/08/26 03:06:51;;;;;;;0.90;0.70;;;;;;;;;;4958884;28;20465;-76
2021/08/26 03:09:17;;;;;;;1.73;1.20;;;;;;;;;;4924776;28;20541;-76
2021/08/26 03:11:43;;;;;;;1.20;1.00;;;;;;;;;;4957092;28;20440;-76
2021/08/26 03:14:09;;;;;;;1.17;0.70;;;;;;;;;;4956007;28;20924;-77
2021/08/26 03:16:35;;;;;;;0.80;0.60;;;;;;;;;;4963866;28;20443;-75
2021/08/26 03:19:01;;;;;;;1.57;1.27;;;;;;;;;;4912838;28;20456;-77
2021/08/26 03:21:27;;;;;;;1.52;1.05;;;;;;;;;;4943552;28;20447;-76
2021/08/26 03:23:53;;;;;;;0.93;0.83;;;;;;;;;;4972198;28;20589;-76
2021/08/26 03:26:19;;;;;;;1.17;1.07;;;;;;;;;;4951305;28;20440;-76
2021/08/26 03:28:45;;;;;;;1.10;0.70;;;;;;;;;;4966754;28;20464;-76
2021/08/26 03:31:12;;;;;;;0.80;0.60;;;;;;;;;;5014044;28;20918;-76
2021/08/26 03:33:38;;;;;;;0.80;0.70;;;;;;;;;;4967351;28;20523;-76
2021/08/26 03:36:05;;;;;;;0.80;0.60;;;;;;;;;;5021153;28;20198;-76
2021/08/26 03:38:31;;;;;;;0.80;0.70;;;;;;;;;;4942332;28;20471;-76
2021/08/26 03:40:57;;;;;;;2.40;0.70;;;;;;;;;;4959161;28;20432;-76
2021/08/26 03:43:23;;;;;;;0.90;0.80;;;;;;;;;;4976126;28;20540;-76
2021/08/26 03:45:49;;;;;;;1.00;0.90;;;;;;;;;;5005891;28;20442;-76
2021/08/26 03:48:15;;;;;;;0.80;0.70;;;;;;;;;;4925913;28;20223;-76
2021/08/26 03:50:41;;;;;;;0.80;0.60;;;;;;;;;;4926769;28;20642;-76
2021/08/26 03:53:07;;;;;;;1.57;1.47;;;;;;;;;;4933629;28;20465;-76
2021/08/26 03:55:33;;;;;;;0.90;0.70;;;;;;;;;;4918320;28;20440;-76
2021/08/26 03:57:59;;;;;;;0.80;0.70;;;;;;;;;;4919163;28;20762;-76
2021/08/26 04:00:25;;;;;;;0.80;0.60;;;;;;;;;;4928050;28;20463;-76
2021/08/26 04:02:51;;;;;;;0.80;0.60;;;;;;;;;;4966157;28;20463;-76
2021/08/26 04:05:17;;;;;;;0.80;0.60;;;;;;;;;;4975843;28;20778;-76
2021/08/26 04:07:43;;;;;;;0.90;0.73;;;;;;;;;;4950629;28;20553;-76
2021/08/26 04:10:09;;;;;;;0.80;0.60;;;;;;;;;;4918885;29;20465;-76
2021/08/26 04:12:35;;;;;;;0.90;0.90;;;;;;;;;;4919364;29;20498;-76
2021/08/26 04:15:01;;;;;;;1.47;1.37;;;;;;;;;;4963284;28;20181;-76
2021/08/26 04:17:27;;;;;;;1.10;1.00;;;;;;;;;;4924107;29;20476;-76
2021/08/26 04:19:53;;;;;;;1.10;0.90;;;;;;;;;;4927056;29;20815;-76
2021/08/26 04:22:19;;;;;;;0.80;0.60;;;;;;;;;;4919573;28;20437;-76
2021/08/26 04:24:45;;;;;;;1.43;0.70;;;;;;;;;;4918347;29;20564;-75
2021/08/26 04:27:11;;;;;;;1.10;1.00;;;;;;;;;;4918723;29;20419;-73
2021/08/26 04:29:37;;;;;;;0.80;0.70;;;;;;;;;;4921093;28;20907;-73
2021/08/26 04:32:03;;;;;;;1.10;1.00;;;;;;;;;;4919387;28;20430;-73
2021/08/26 04:34:29;;;;;;;1.00;0.90;;;;;;;;;;4919875;29;20421;-74
2021/08/26 04:36:55;;;;;;;0.80;0.60;;;;;;;;;;4919827;29;20443;-73
2021/08/26 04:39:21;;;;;;;0.80;0.60;;;;;;;;;;4919606;28;20476;-74
2021/08/26 04:41:47;;;;;;;1.10;1.00;;;;;;;;;;4918636;28;20255;-74
2021/08/26 04:44:13;;;;;;;0.80;0.60;;;;;;;;;;4916708;28;20439;-73
2021/08/26 04:46:39;;;;;;;1.07;0.80;;;;;;;;;;4920099;28;20433;-73
2021/08/26 04:49:05;;;;;;;0.90;0.73;;;;;;;;;;4927490;29;20447;-74
2021/08/26 04:51:31;;;;;;;1.87;0.93;;;;;;;;;;4916461;29;20407;-73
2021/08/26 04:53:57;;;;;;;1.43;1.20;;;;;;;;;;4918347;28;21047;-73
2021/08/26 04:56:23;;;;;;;0.90;0.70;;;;;;;;;;4931608;28;21268;-74
2021/08/26 04:58:49;;;;;;;0.80;0.63;;;;;;;;;;4931478;29;20216;-73
2021/08/26 05:01:15;;;;;;;0.80;0.60;;;;;;;;;;4916280;28;20484;-73
2021/08/26 05:03:41;;;;;;;0.80;0.70;;;;;;;;;;4916587;29;20797;-73
2021/08/26 05:06:07;;;;;;;0.80;0.60;;;;;;;;;;4916172;29;20560;-73
2021/08/26 05:08:34;;;;;;;0.80;0.70;;;;;;;;;;4916252;28;20518;-73
2021/08/26 05:11:00;;;;;;;1.33;1.00;;;;;;;;;;4916580;28;20429;-73
2021/08/26 05:13:26;;;;;;;1.17;1.00;;;;;;;;;;4916392;28;20428;-73
2021/08/26 05:15:52;;;;;;;1.27;1.17;;;;;;;;;;4915566;28;20423;-73
2021/08/26 05:18:18;;;;;;;1.37;1.27;;;;;;;;;;4915268;29;20444;-73
2021/08/26 05:20:44;;;;;;;0.80;0.63;;;;;;;;;;4914638;28;20517;-74
2021/08/26 05:23:10;;;;;;;0.80;0.60;;;;;;;;;;4915238;29;20433;-75
2021/08/26 05:25:36;;;;;;;0.80;0.70;;;;;;;;;;4920333;29;21063;-74
2021/08/26 05:28:02;;;;;;;0.80;0.77;;;;;;;;;;4926223;29;20504;-74
2021/08/26 05:30:28;;;;;;;1.83;0.93;;;;;;;;;;4934260;29;20471;-73
2021/08/26 05:32:55;;;;;;;0.93;0.73;;;;;;;;;;4919467;29;21022;-73
2021/08/26 05:35:21;;;;;;;0.80;0.60;;;;;;;;;;4915734;28;20421;-73
2021/08/26 05:37:47;;;;;;;1.03;0.93;;;;;;;;;;4915043;29;20183;-73
2021/08/26 05:40:13;;;;;;;1.53;0.80;;;;;;;;;;4914906;29;20511;-73
2021/08/26 05:42:39;;;;;;;2.10;1.30;;;;;;;;;;4915198;29;20457;-73
2021/08/26 05:45:05;;;;;;;0.90;0.90;;;;;;;;;;4915122;28;20842;-73
2021/08/26 05:47:31;;;;;;;0.80;0.60;;;;;;;;;;4914062;29;20567;-73
2021/08/26 05:49:57;;;;;;;1.43;0.80;;;;;;;;;;4914844;28;20244;-72
2021/08/26 05:52:23;;;;;;;0.80;0.80;;;;;;;;;;4915261;28;20498;-73
2021/08/26 05:54:49;;;;;;;0.90;0.70;;;;;;;;;;4921312;29;20795;-73
2021/08/26 05:57:15;;;;;;;2.03;0.90;;;;;;;;;;4926089;29;20415;-73
2021/08/26 05:59:41;;;;;;;1.07;0.87;;;;;;;;;;4934862;29;20444;-73
2021/08/26 06:02:07;;;;;;;0.80;0.60;;;;;;;;;;4934077;29;20807;-73
2021/08/26 06:04:33;;;;;;;0.80;0.60;;;;;;;;;;4922780;29;20444;-73
2021/08/26 06:06:59;;;;;;;1.43;0.70;;;;;;;;;;4914774;29;20451;-73
2021/08/26 06:09:25;;;;;;;1.03;0.93;;;;;;;;;;4914831;29;20468;-73
2021/08/26 06:11:51;;;;;;;0.80;0.60;;;;;;;;;;4915344;29;20420;-73
2021/08/26 06:14:17;;;;;;;0.80;0.60;;;;;;;;;;4915145;28;20536;-73
2021/08/26 06:16:43;;;;;;;0.80;0.70;;;;;;;;;;4915078;28;20460;-73
2021/08/26 06:19:09;;;;;;;1.27;1.17;;;;;;;;;;4914077;29;20566;-73
2021/08/26 06:21:35;;;;;;;1.90;0.70;;;;;;;;;;4915066;29;20507;-73
2021/08/26 06:24:06;;;;;;;0.80;0.73;;;;;;;;;;4917482;29;20447;-73
2021/08/26 06:26:32;;;;;;;1.10;0.90;;;;;;;;;;4925711;29;20508;-73
2021/08/26 06:28:58;;;;;;;0.80;0.60;;;;;;;;;;4948348;28;20546;-73
2021/08/26 06:31:24;;;;;;;4.30;1.17;;;;;;;;;;4933535;29;20420;-73
2021/08/26 06:33:49;;;;;;;0.97;0.73;;;;;;;;;;4918769;29;20476;-72
2021/08/26 06:36:16;;;;;;;0.80;0.70;;;;;;;;;;4913993;29;20502;-73
2021/08/26 06:38:41;;;;;;;0.80;0.60;;;;;;;;;;4939602;23;20523;-69
2021/08/26 06:41:09;;;;;;;0.90;0.80;;;;;;;;;;5032552;28;20419;-70
2021/08/26 06:43:35;;;;;;;1.00;0.80;;;;;;;;;;5049400;28;20418;-72
2021/08/26 06:46:01;;;;;;;1.30;1.20;;;;;;;;;;5052061;28;20393;-72
2021/08/26 06:48:27;;;;;;;0.80;0.70;;;;;;;;;;5052017;28;20509;-72
2021/08/26 06:50:52;;;;;;;0.90;0.80;;;;;;;;;;5025097;28;20448;-72
2021/08/26 06:53:18;;;;;;;0.80;0.60;;;;;;;;;;5012581;28;20408;-71
2021/08/26 06:55:44;;;;;;;0.80;0.60;;;;;;;;;;5016016;28;20433;-71
2021/08/26 06:58:10;;;;;;;1.03;0.93;;;;;;;;;;5018418;28;20427;-72
2021/08/26 07:00:36;;;;;;;0.80;0.60;;;;;;;;;;5012262;28;20427;-71
2021/08/26 07:03:02;;;;;;;0.80;0.67;;;;;;;;;;5012359;28;20460;-72
2021/08/26 07:05:28;;;;;;;0.80;0.60;;;;;;;;;;5011809;28;20507;-71
2021/08/26 07:07:54;;;;;;;1.43;0.70;;;;;;;;;;5011760;28;20494;-72
2021/08/26 07:10:20;;;;;;;1.60;1.50;;;;;;;;;;5012023;28;20492;-71
2021/08/26 07:12:46;;;;;;;2.20;1.17;;;;;;;;;;5012261;28;20410;-71
2021/08/26 07:15:12;;;;;;;0.90;0.80;;;;;;;;;;5012308;28;20420;-72
2021/08/26 07:17:39;;;;;;;0.93;0.83;;;;;;;;;;5010686;28;20436;-71
2021/08/26 07:20:09;;;;;;;1.00;0.70;;;;;;;;;;5011955;28;20464;-73
2021/08/26 07:22:35;;;;;;;0.80;0.60;;;;;;;;;;5012179;28;20439;-71
2021/08/26 07:25:01;;;;;;;1.93;1.83;;;;;;;;;;5015886;28;20420;-73
2021/08/26 07:27:27;;;;;;;1.00;0.90;;;;;;;;;;5023203;28;20415;-72
2021/08/26 07:29:53;;;;;;;0.80;0.60;;;;;;;;;;5031717;28;20489;-72
2021/08/26 07:32:19;;;;;;;0.80;0.60;;;;;;;;;;5031674;28;20432;-72
2021/08/26 07:34:45;;;;;;;1.30;0.83;;;;;;;;;;5013125;28;20447;-73
2021/08/26 07:37:11;;;;;;;0.80;0.60;;;;;;;;;;4994177;28;20417;-73
2021/08/26 07:39:37;;;;;;;0.80;0.63;;;;;;;;;;5010881;28;20859;-72
2021/08/26 07:42:03;;;;;;;0.80;0.60;;;;;;;;;;5012044;28;20432;-72
2021/08/26 07:44:29;;;;;;;0.83;0.70;;;;;;;;;;5012060;28;20418;-72
2021/08/26 07:46:55;;;;;;;3.43;2.80;;;;;;;;;;5011450;28;20419;-72
2021/08/26 07:49:21;;;;;;;0.80;0.60;;;;;;;;;;5011632;28;20443;-71
2021/08/26 07:51:47;;;;;;;0.90;0.60;;;;;;;;;;4992357;28;20440;-72
2021/08/26 07:54:13;;;;;;;0.83;0.60;;;;;;;;;;4995756;28;20396;-72
2021/08/26 07:56:39;;;;;;;0.90;0.60;;;;;;;;;;5020644;28;20421;-72
2021/08/26 07:59:05;;;;;;;0.80;0.60;;;;;;;;;;5017630;28;20457;-73
2021/08/26 08:01:31;;;;;;;0.80;0.60;;;;;;;;;;5011690;28;20467;-73
2021/08/26 08:03:57;;;;;;;0.80;0.60;;;;;;;;;;5011725;28;20410;-73
2021/08/26 08:06:24;;;;;;;1.43;0.80;;;;;;;;;;5011393;28;20416;-72
2021/08/26 08:08:50;;;;;;;0.90;0.70;;;;;;;;;;5013627;28;20473;-72
2021/08/26 08:11:16;;;;;;;0.93;0.83;;;;;;;;;;5013448;28;20422;-73
2021/08/26 08:13:43;;;;;;;0.80;0.50;;;;;;;;;;5014595;28;20435;-71
2021/08/26 08:16:08;;;;;;;1.00;0.70;;;;;;;;;;5012320;28;20409;-71
2021/08/26 08:18:34;;;;;;;0.80;0.60;;;;;;;;;;5014252;28;20420;-70
2021/08/26 08:21:02;;;;;;;0.80;0.60;;;;;;;;;;5015369;28;20435;-71
2021/08/26 08:23:28;;;;;;;1.10;0.80;;;;;;;;;;5015287;28;20382;-71
2021/08/26 08:25:54;;;;;;;11.83;0.83;;;;;;;;;;5022802;28;20422;-73
2021/08/26 08:28:20;;;;;;;1.40;0.70;;;;;;;;;;5026226;28;20947;-72
2021/08/26 08:30:47;;;;;;;0.90;0.80;;;;;;;;;;5014166;28;20875;-73
2021/08/26 08:33:13;;;;;;;0.80;0.60;;;;;;;;;;5015176;28;20415;-71
2021/08/26 08:35:39;;;;;;;1.07;0.97;;;;;;;;;;5015134;28;20449;-70
2021/08/26 08:38:05;;;;;;;1.40;0.70;;;;;;;;;;5014836;28;20391;-71
2021/08/26 08:40:31;;;;;;;0.80;0.60;;;;;;;;;;5014605;28;20511;-70
2021/08/26 08:42:58;;;;;;;1.47;0.93;;;;;;;;;;5014843;28;20469;-71
2021/08/26 08:45:24;;;;;;;0.80;0.60;;;;;;;;;;5014728;28;20415;-71
2021/08/26 08:47:51;;;;;;;1.43;1.17;;;;;;;;;;5014489;28;20456;-73
2021/08/26 08:50:21;;;;;;;0.80;0.60;;;;;;;;;;5014817;28;20476;-72
2021/08/26 08:52:47;;;;;;;1.00;0.60;;;;;;;;;;5014613;28;20506;-72
2021/08/26 08:55:14;;;;;;;0.80;0.67;;;;;;;;;;5020292;28;20730;-71
2021/08/26 08:57:41;;;;;;;1.00;0.70;;;;;;;;;;5023547;28;20394;-71
2021/08/26 09:00:08;;;;;;;1.27;1.17;;;;;;;;;;5013433;28;20513;-71
2021/08/26 09:02:34;;;;;;;0.90;0.60;;;;;;;;;;5014558;28;20417;-70
2021/08/26 09:05:01;;;;;;;0.90;0.70;;;;;;;;;;5014556;28;20414;-71
2021/08/26 09:07:28;;;;;;;1.30;1.20;;;;;;;;;;4996432;28;20779;-72
2021/08/26 09:09:54;;;;;;;0.80;0.70;;;;;;;;;;5014079;28;20437;-71
2021/08/26 09:12:21;;;;;;;0.80;0.60;;;;;;;;;;5013789;28;20426;-70
2021/08/26 09:14:47;;;;;;;0.80;0.60;;;;;;;;;;5015224;28;20433;-71
2021/08/26 09:17:20;;;;;;;0.80;0.70;;;;;;;;;;5025582;28;20408;-72
2021/08/26 09:19:46;;;;;;;0.80;0.70;;;;;;;;;;5016247;28;20501;-73
2021/08/26 09:22:21;;;;;;;0.90;0.60;;;;;;;;;;5033938;28;20829;-73
2021/08/26 09:24:48;;;;;;;0.80;0.70;;;;;;;;;;5033937;28;20411;-72
2021/08/26 09:27:36;;;;;;;0.80;0.60;;;;;;;;;;5018746;28;20424;-72
2021/08/26 09:30:06;;;;;;;3.00;0.70;;;;;;;;;;5013388;28;20441;-73
2021/08/26 09:32:42;;;;;;;0.80;0.60;;;;;;;;;;5013193;28;20429;-71
2021/08/26 09:35:14;;;;;;;0.90;0.70;;;;;;;;;;5014006;28;20458;-72
2021/08/26 09:38:00;;;;;;;0.80;0.63;;;;;;;;;;5013535;28;20388;-71
2021/08/26 09:40:27;;;;;;;1.27;1.00;;;;;;;;;;5013743;28;20448;-72
2021/08/26 09:42:56;;;;;;;0.80;0.57;;;;;;;;;;5013469;28;20792;-71
2021/08/26 09:45:24;;;;;;;0.80;0.60;;;;;;;;;;5019917;28;20470;-71
2021/08/26 09:48:02;;;;;;;1.93;1.00;;;;;;;;;;5022744;28;20507;-73
2021/08/26 09:50:34;;;;;;;0.87;0.60;;;;;;;;;;5033316;28;20490;-71
2021/08/26 09:53:01;;;;;;;1.33;1.13;;;;;;;;;;5033412;28;20427;-73
2021/08/26 09:55:46;;;;;;;0.80;0.60;;;;;;;;;;5033274;28;20388;-73
2021/08/26 09:58:13;;;;;;;0.80;0.60;;;;;;;;;;5024329;28;20411;-73
2021/08/26 10:00:39;;;;;;;1.13;0.70;;;;;;;;;;5013287;28;20408;-72
2021/08/26 10:03:09;;;;;;;0.90;0.60;;;;;;;;;;5013578;28;20396;-73
2021/08/26 10:05:37;;;;;;;0.80;0.70;;;;;;;;;;5012702;28;20408;-73
2021/08/26 10:08:04;;;;;;;0.80;0.70;;;;;;;;;;5015735;28;20558;-72
2021/08/26 10:10:32;;;;;;;0.90;0.70;;;;;;;;;;4991097;28;21039;-71
2021/08/26 10:12:59;;;;;;;0.80;0.70;;;;;;;;;;5011662;28;20395;-70
2021/08/26 10:15:25;;;;;;;1.07;0.80;;;;;;;;;;5012751;28;20428;-70
2021/08/26 10:17:52;;;;;;;0.80;0.60;;;;;;;;;;5012952;28;20787;-72
2021/08/26 10:20:19;;;;;;;0.80;0.60;;;;;;;;;;5013139;28;20459;-70
2021/08/26 10:22:46;;;;;;;0.80;0.60;;;;;;;;;;5013105;28;20459;-72
2021/08/26 10:25:12;;;;;;;0.80;0.60;;;;;;;;;;5012911;28;20924;-70
2021/08/26 10:27:38;;;;;;;0.80;0.60;;;;;;;;;;5007445;28;20469;-71
2021/08/26 10:30:04;;;;;;;0.80;0.70;;;;;;;;;;5016900;28;20975;-72
2021/08/26 10:32:30;;;;;;;0.80;0.80;;;;;;;;;;5025693;28;20435;-71
2021/08/26 10:35:15;;;;;;;0.80;0.60;;;;;;;;;;5012887;28;20437;-70
2021/08/26 10:37:48;;;;;;;0.80;0.70;;;;;;;;;;5012265;28;21169;-73
2021/08/26 10:40:43;;;;;;;0.90;0.80;;;;;;;;;;5011884;28;20544;-72
2021/08/26 10:43:29;;;;;;;0.80;0.60;;;;;;;;;;4999801;28;20501;-71
2021/08/26 10:45:55;;;;;;;0.80;0.60;;;;;;;;;;5011711;28;20400;-72
2021/08/26 10:48:25;;;;;;;0.90;0.70;;;;;;;;;;5011921;28;20956;-71
2021/08/26 10:51:07;;;;;;;2.17;0.77;;;;;;;;;;5022891;28;20448;-72
2021/08/26 10:53:37;;;;;;;0.80;0.80;;;;;;;;;;5032499;28;21011;-72
2021/08/26 10:56:21;;;;;;;0.80;0.50;;;;;;;;;;5021248;28;20397;-71
2021/08/26 10:58:51;;;;;;;0.90;0.70;;;;;;;;;;5015069;28;20433;-72
2021/08/26 11:01:42;;;;;;;2.30;1.03;;;;;;;;;;5012509;28;20483;-72
2021/08/26 11:04:14;;;;;;;2.40;0.90;;;;;;;;;;5003213;28;20420;-69
2021/08/26 11:06:41;;;;;;;0.97;0.80;;;;;;;;;;5000293;28;20453;-71
2021/08/26 11:09:13;;;;;;;0.80;0.60;;;;;;;;;;5011392;28;20827;-71
2021/08/26 11:11:41;;;;;;;0.80;0.60;;;;;;;;;;5012118;28;20424;-71
2021/08/26 11:14:07;;;;;;;1.27;1.17;;;;;;;;;;5012488;28;20387;-71
2021/08/26 11:16:34;;;;;;;0.80;0.70;;;;;;;;;;5011424;28;20999;-72
2021/08/26 11:19:07;;;;;;;1.20;1.10;;;;;;;;;;5011490;28;20960;-71
2021/08/26 11:24:09;;;;;;;0.80;0.60;;;;;;;;;;5012287;28;20400;-71
2021/08/26 11:26:42;;;;;;;0.90;0.87;;;;;;;;;;5020204;28;20398;-71
2021/08/26 11:29:18;;;;;;;0.80;0.60;;;;;;;;;;5009123;28;20484;-71
2021/08/26 11:31:53;;;;;;;0.90;0.70;;;;;;;;;;5013022;28;20809;-73
2021/08/26 11:34:34;;;;;;;1.10;0.70;;;;;;;;;;5010769;28;20440;-70
2021/08/26 11:37:04;;;;;;;0.80;0.73;;;;;;;;;;5011761;28;20406;-72
2021/08/26 11:39:30;;;;;;;0.97;0.87;;;;;;;;;;5011445;28;20930;-71
2021/08/26 11:41:57;;;;;;;0.80;0.50;;;;;;;;;;5011431;28;20523;-74
2021/08/26 11:44:23;;;;;;;0.80;0.60;;;;;;;;;;5011924;28;20418;-72
2021/08/26 11:46:49;;;;;;;0.93;0.83;;;;;;;;;;5011132;28;20380;-72
2021/08/26 11:49:15;;;;;;;0.80;0.50;;;;;;;;;;5011424;28;20557;-72
2021/08/26 11:51:41;;;;;;;0.77;0.57;;;;;;;;;;5013177;28;20436;-72
2021/08/26 11:54:17;;;;;;;0.70;0.50;;;;;;;;;;5015411;28;20442;-74
2021/08/26 11:56:46;;;;;;;0.80;0.80;;;;;;;;;;5025289;28;20875;-73
2021/08/26 11:59:22;;;;;;;1.27;0.63;;;;;;;;;;5021482;28;20470;-73
2021/08/26 12:01:48;;;;;;;0.80;0.60;;;;;;;;;;5015547;28;20398;-72
2021/08/26 12:04:14;;;;;;;1.10;1.10;;;;;;;;;;5014633;28;20437;-72
2021/08/26 12:06:41;;;;;;;0.70;0.50;;;;;;;;;;5015176;28;20424;-73
2021/08/26 12:09:07;;;;;;;1.17;1.07;;;;;;;;;;5014995;28;20841;-73
2021/08/26 12:11:33;;;;;;;1.07;1.00;;;;;;;;;;5015467;28;20384;-73
2021/08/26 12:14:08;;;;;;;0.70;0.50;;;;;;;;;;5015152;28;20430;-72
2021/08/26 12:16:34;;;;;;;0.70;0.50;;;;;;;;;;5011092;28;20836;-71
2021/08/26 12:19:00;;;;;;;3.83;0.70;;;;;;;;;;5018587;28;20822;-72
2021/08/26 12:21:26;;;;;;;1.00;0.67;;;;;;;;;;5026931;28;20395;-71
2021/08/26 12:23:52;;;;;;;0.70;0.67;;;;;;;;;;5035056;28;20386;-70
2021/08/26 12:26:20;;;;;;;0.80;0.60;;;;;;;;;;5015497;28;20424;-71
2021/08/26 12:28:49;;;;;;;0.70;0.50;;;;;;;;;;5014961;28;20442;-73
2021/08/26 12:31:16;;;;;;;0.70;0.50;;;;;;;;;;5014724;28;20399;-73
2021/08/26 12:34:01;;;;;;;0.90;0.73;;;;;;;;;;5013868;28;20408;-73
2021/08/26 12:36:27;;;;;;;0.70;0.60;;;;;;;;;;5014574;28;20419;-73
2021/08/26 12:38:53;;;;;;;0.70;0.60;;;;;;;;;;5014813;28;20409;-72
2021/08/26 12:41:22;;;;;;;0.70;0.50;;;;;;;;;;5015662;28;20409;-72
2021/08/26 12:43:56;;;;;;;0.80;0.60;;;;;;;;;;5030249;28;20426;-70
2021/08/26 12:46:23;;;;;;;0.70;0.50;;;;;;;;;;5013848;28;20775;-70
2021/08/26 12:48:50;;;;;;;0.70;0.60;;;;;;;;;;5016863;28;20465;-72
2021/08/26 12:51:21;;;;;;;0.80;0.70;;;;;;;;;;5023121;28;21156;-70
2021/08/26 12:54:10;;;;;;;0.70;0.50;;;;;;;;;;5034538;28;20437;-70
2021/08/26 12:56:44;;;;;;;0.70;0.50;;;;;;;;;;5017147;28;20421;-69
2021/08/26 12:59:12;;;;;;;0.80;0.60;;;;;;;;;;5012435;28;20807;-70
2021/08/26 13:01:39;;;;;;;0.80;0.50;;;;;;;;;;5013987;28;20412;-70
2021/08/26 13:04:14;;;;;;;0.80;0.60;;;;;;;;;;5012688;28;20446;-70
2021/08/26 13:06:42;;;;;;;0.80;0.60;;;;;;;;;;5014120;28;20421;-70
2021/08/26 13:09:09;;;;;;;0.80;0.60;;;;;;;;;;5014273;28;20443;-70
2021/08/26 13:11:37;;;;;;;1.00;0.90;;;;;;;;;;5013953;28;20767;-69
2021/08/26 13:14:03;;;;;;;0.80;0.70;;;;;;;;;;5014000;28;20943;-70
2021/08/26 13:16:29;;;;;;;0.80;0.50;;;;;;;;;;5013612;28;20497;-70
2021/08/26 13:18:55;;;;;;;0.80;0.60;;;;;;;;;;5013606;28;20822;-70
2021/08/26 13:21:21;;;;;;;0.80;0.60;;;;;;;;;;5018701;28;20434;-70
2021/08/26 13:23:47;;;;;;;0.80;0.50;;;;;;;;;;5013499;28;20404;-70
2021/08/26 13:26:13;;;;;;;0.80;0.60;;;;;;;;;;5013709;28;20446;-71
2021/08/26 13:28:40;;;;;;;1.00;0.80;;;;;;;;;;5013354;28;20478;-70
2021/08/26 13:31:06;;;;;;;0.80;0.60;;;;;;;;;;5011137;28;20423;-71
2021/08/26 13:33:33;;;;;;;1.00;0.90;;;;;;;;;;5010414;28;20487;-70
2021/08/26 13:35:59;;;;;;;0.80;0.70;;;;;;;;;;5012802;28;20400;-70
2021/08/26 13:38:25;;;;;;;0.70;0.50;;;;;;;;;;5007122;28;20950;-71
2021/08/26 13:40:51;;;;;;;0.80;0.60;;;;;;;;;;5010894;28;20472;-70
2021/08/26 13:43:17;;;;;;;1.30;0.70;;;;;;;;;;5013286;28;20443;-69
2021/08/26 13:45:44;;;;;;;0.90;0.60;;;;;;;;;;5012560;28;20459;-68
2021/08/26 13:48:10;;;;;;;1.43;1.30;;;;;;;;;;5012913;28;20876;-71
2021/08/26 13:50:37;;;;;;;0.90;0.70;;;;;;;;;;5022132;28;20470;-72
2021/08/26 13:53:03;;;;;;;0.70;0.60;;;;;;;;;;5014012;28;20443;-69
2021/08/26 13:55:32;;;;;;;1.10;1.00;;;;;;;;;;5013389;28;21138;-70
2021/08/26 13:57:58;;;;;;;0.80;0.77;;;;;;;;;;5013009;28;20729;-70
2021/08/26 14:00:27;;;;;;;1.10;0.77;;;;;;;;;;5013323;28;20499;-71
2021/08/26 14:02:53;;;;;;;0.97;0.60;;;;;;;;;;5013454;28;20406;-70
2021/08/26 14:05:19;;;;;;;0.80;0.60;;;;;;;;;;5012202;28;20500;-70
2021/08/26 14:07:45;;;;;;;0.90;0.70;;;;;;;;;;5012072;28;20436;-70
2021/08/26 14:10:12;;;;;;;1.20;1.10;;;;;;;;;;5011353;28;20477;-69
2021/08/26 14:12:39;;;;;;;1.33;1.23;;;;;;;;;;5012359;28;20407;-70
2021/08/26 14:15:05;;;;;;;0.70;0.50;;;;;;;;;;5013225;28;20490;-71
2021/08/26 14:17:32;;;;;;;1.13;1.03;;;;;;;;;;5012704;28;20429;-70
2021/08/26 14:19:58;;;;;;;0.70;0.50;;;;;;;;;;5020690;28;20416;-70
2021/08/26 14:22:24;;;;;;;0.70;0.60;;;;;;;;;;5028557;28;20384;-70
2021/08/26 14:24:50;;;;;;;0.90;0.70;;;;;;;;;;5032731;28;20475;-70
2021/08/26 14:27:16;;;;;;;0.70;0.60;;;;;;;;;;5016671;28;20517;-70
2021/08/26 14:29:42;;;;;;;1.37;1.13;;;;;;;;;;5012639;28;20471;-69
2021/08/26 14:32:08;;;;;;;0.70;0.53;;;;;;;;;;5009089;28;20529;-70
2021/08/26 14:34:34;;;;;;;0.70;0.50;;;;;;;;;;5011423;28;20458;-71
2021/08/26 14:37:00;;;;;;;1.47;1.37;;;;;;;;;;5011749;28;20905;-69
2021/08/26 14:39:26;;;;;;;2.80;1.20;;;;;;;;;;5012433;28;20453;-70
2021/08/26 14:41:52;;;;;;;2.17;0.97;;;;;;;;;;5012769;28;20418;-70
2021/08/26 14:44:19;;;;;;;0.70;0.60;;;;;;;;;;5012159;28;20901;-69
2021/08/26 14:46:45;;;;;;;0.70;0.60;;;;;;;;;;5015433;28;20512;-69
2021/08/26 14:49:11;;;;;;;0.97;0.87;;;;;;;;;;5017424;28;20451;-70
2021/08/26 14:51:39;;;;;;;1.30;0.80;;;;;;;;;;5015237;28;20998;-71